| Date | Time | Temp. (oF) | Dew Point (oF) | Rel. Hum. (%) | Press. (in.) | Wind Dir. (deg.) | Wind Speed (mph) | Hourly Rainfall (i n.) |
|
|---|---|---|---|---|---|---|---|---|---|
| 1 | 06/02 | 24:00 | 70 | 63 | 79 | 30.15 | 350 | 1 | 0.00 |
| 2 | 06/01 | 23:00 | 70 | 62 | 76 | 30.14 | 350 | 0 | 0.00 |
| 3 | 06/01 | 22:00 | 71 | 62 | 75 | 30.13 | 350 | 0 | 0.00 |
| 4 | 06/01 | 21:00 | 73 | 62 | 69 | 30.08 | 350 | 1 | 0.00 |
| 5 | 06/01 | 20:00 | 77 | 61 | 59 | 30.08 | 350 | 1 | 0.00 |
| 6 | 06/01 | 19:00 | 79 | 59 | 51 | 30.08 | 230 | 2 | 0.00 |
| 7 | 06/01 | 18:00 | 81 | 60 | 50 | 30.09 | 270 | 1 | 0.00 |
| 8 | 06/01 | 17:00 | 83 | 61 | 48 | 30.10 | 270 | 7 | 0.00 |
| 9 | 06/01 | 16:00 | 85 | 60 | 44 | 30.10 | 300 | 2 | 0.00 |
| 10 | 06/01 | 15:00 | 87 | 60 | 42 | 30.11 | 290 | 4 | 0.00 |
| 11 | 06/01 | 14:00 | 88 | 60 | 40 | 30.10 | 290 | 2 | 0.00 |
| 12 | 06/01 | 13:00 | 88 | 59 | 39 | 30.11 | 140 | 2 | 0.00 |
| 13 | 06/01 | 12:00 | 88 | 60 | 40 | 30.12 | 150 | 4 | 0.00 |
| 14 | 06/01 | 11:00 | 85 | 58 | 41 | 30.13 | 330 | 4 | 0.00 |
| 15 | 06/01 | 10:00 | 77 | 59 | 56 | 30.13 | 150 | 2 | 0.00 |
| 16 | 06/01 | 09:00 | 71 | 58 | 65 | 30.14 | 110 | 0 | 0.00 |
| 17 | 06/01 | 08:00 | 68 | 58 | 71 | 30.15 | 120 | 6 | 0.00 |
| 18 | 06/01 | 07:00 | 66 | 56 | 72 | 30.21 | 150 | 1 | 0.00 |
| 19 | 06/01 | 06:00 | 65 | 54 | 70 | 30.21 | 150 | 0 | 0.00 |
| 20 | 06/01 | 05:00 | 66 | 55 | 69 | 30.21 | 150 | 0 | 0.00 |
| 21 | 06/01 | 04:00 | 66 | 55 | 70 | 30.21 | 150 | 0 | 0.00 |
| 22 | 06/01 | 03:00 | 66 | 55 | 68 | 30.21 | 150 | 1 | 0.00 |
| 23 | 06/01 | 02:00 | 67 | 55 | 67 | 30.21 | 150 | 0 | 0.00 |
| 24 | 06/01 | 01:00 | 68 | 55 | 64 | 30.21 | 150 | 0 | 0.00 |